createdAt,value
2022-08-24T00:01:57.644Z,1.17
2022-08-24T00:04:26.801Z,1.23
2022-08-24T00:06:56.829Z,0.90
2022-08-24T00:09:25.013Z,1.20
2022-08-24T00:11:53.200Z,1.20
2022-08-24T00:14:23.061Z,1.20
2022-08-24T00:16:51.252Z,1.23
2022-08-24T00:19:19.673Z,1.10
2022-08-24T00:21:48.184Z,1.20
2022-08-24T00:24:16.441Z,1.27
2022-08-24T00:26:46.426Z,1.40
2022-08-24T00:29:14.847Z,1.20
2022-08-24T00:31:44.394Z,1.48
2022-08-24T00:34:13.948Z,1.45
2022-08-24T00:36:42.475Z,1.27
2022-08-24T00:39:11.270Z,1.10
2022-08-24T00:41:44.222Z,1.50
2022-08-24T00:44:14.153Z,1.50
2022-08-24T00:46:49.487Z,1.27
2022-08-24T00:49:24.470Z,1.15
2022-08-24T00:51:57.487Z,1.10
2022-08-24T00:54:29.259Z,1.65
2022-08-24T00:57:01.150Z,1.40
2022-08-24T00:59:33.815Z,1.40
2022-08-24T01:02:15.122Z,1.38
2022-08-24T01:04:50.108Z,1.20
2022-08-24T01:07:18.305Z,1.08
2022-08-24T01:09:47.314Z,1.50
2022-08-24T01:12:16.760Z,1.30
2022-08-24T01:14:46.029Z,1.40
2022-08-24T01:17:38.611Z,1.50
2022-08-24T01:20:09.941Z,1.60
2022-08-24T01:22:54.238Z,1.25
2022-08-24T01:25:26.012Z,1.15
2022-08-24T01:27:57.267Z,1.40
2022-08-24T01:30:30.458Z,1.38
2022-08-24T01:33:08.034Z,1.13
2022-08-24T01:35:37.714Z,1.33
2022-08-24T01:38:09.111Z,1.13
2022-08-24T01:40:43.938Z,1.40
2022-08-24T01:43:13.675Z,1.40
2022-08-24T01:45:42.203Z,1.48
2022-08-24T01:48:10.285Z,1.45
2022-08-24T01:50:38.551Z,1.40
2022-08-24T01:53:07.886Z,1.48
2022-08-24T01:55:37.111Z,1.50
2022-08-24T01:58:07.158Z,1.42
2022-08-24T02:00:36.662Z,1.55
2022-08-24T02:03:05.621Z,1.40
2022-08-24T02:05:34.595Z,1.42
2022-08-24T02:08:02.810Z,1.50
2022-08-24T02:10:31.758Z,1.20
2022-08-24T02:13:00.646Z,1.60
2022-08-24T02:15:33.383Z,1.90
2022-08-24T02:18:02.097Z,1.50
2022-08-24T02:20:30.675Z,1.65
2022-08-24T02:22:59.289Z,1.60
2022-08-24T02:25:30.635Z,1.30
2022-08-24T02:27:59.585Z,1.63
2022-08-24T02:30:30.553Z,1.73
2022-08-24T02:32:59.393Z,1.55
2022-08-24T02:35:28.221Z,1.52
2022-08-24T02:37:56.289Z,1.70
2022-08-24T02:40:25.264Z,1.60
2022-08-24T02:42:53.495Z,1.70
2022-08-24T02:45:21.755Z,1.73
2022-08-24T02:47:51.159Z,1.70
2022-08-24T02:50:19.894Z,1.50
2022-08-24T02:52:48.307Z,1.75
2022-08-24T02:55:19.843Z,1.60
2022-08-24T02:57:49.570Z,1.55
2022-08-24T03:00:20.451Z,1.63
2022-08-24T03:02:49.990Z,1.40
2022-08-24T03:05:18.760Z,1.90
2022-08-24T03:07:46.912Z,1.70
2022-08-24T03:10:15.503Z,1.77
2022-08-24T03:12:44.763Z,1.83
2022-08-24T03:15:13.616Z,1.52
2022-08-24T03:17:43.212Z,1.50
2022-08-24T03:20:15.737Z,1.58
2022-08-24T03:22:43.938Z,1.70
2022-08-24T03:25:13.391Z,1.63
2022-08-24T03:27:41.841Z,2.10
2022-08-24T03:30:13.730Z,1.60
2022-08-24T03:32:42.468Z,1.75
2022-08-24T03:35:13.273Z,1.50
2022-08-24T03:37:41.437Z,2.25
2022-08-24T03:40:23.098Z,1.80
2022-08-24T03:42:53.519Z,1.70
2022-08-24T03:45:21.840Z,1.80
2022-08-24T03:47:50.650Z,2.30
2022-08-24T03:50:20.943Z,2.17
2022-08-24T03:52:49.610Z,1.58
2022-08-24T03:55:18.157Z,2.00
2022-08-24T03:57:46.326Z,1.95
2022-08-24T04:00:16.140Z,2.30
2022-08-24T04:02:44.972Z,2.33
2022-08-24T04:05:14.278Z,2.10
2022-08-24T04:07:43.769Z,1.90
2022-08-24T04:10:13.075Z,1.80
2022-08-24T04:12:41.177Z,2.00
2022-08-24T04:15:10.316Z,2.53
2022-08-24T04:17:38.547Z,2.28
2022-08-24T04:20:09.098Z,2.20
2022-08-24T04:22:37.927Z,2.53
2022-08-24T04:25:08.945Z,2.08
2022-08-24T04:27:38.455Z,1.77
2022-08-24T04:30:08.259Z,2.10
2022-08-24T04:32:36.393Z,2.50
2022-08-24T04:35:06.321Z,2.00
2022-08-24T04:37:34.716Z,2.47
2022-08-24T04:40:03.628Z,2.13
2022-08-24T04:42:33.924Z,2.10
2022-08-24T04:45:03.313Z,2.58
2022-08-24T04:47:31.420Z,2.30
2022-08-24T04:49:59.453Z,2.35
2022-08-24T04:52:27.592Z,2.28
2022-08-24T04:54:55.659Z,1.80
2022-08-24T04:57:24.001Z,1.80
2022-08-24T04:59:57.542Z,2.15
2022-08-24T05:02:25.990Z,2.38
2022-08-24T05:04:54.151Z,2.10
2022-08-24T05:07:22.202Z,2.00
2022-08-24T05:09:52.253Z,2.40
2022-08-24T05:12:21.417Z,2.10
2022-08-24T05:14:49.450Z,2.20
2022-08-24T05:17:18.879Z,2.90
2022-08-24T05:19:47.324Z,2.70
2022-08-24T05:22:15.393Z,2.72
2022-08-24T05:24:43.916Z,2.42
2022-08-24T05:27:14.155Z,2.90
2022-08-24T05:29:42.910Z,2.25
2022-08-24T05:32:11.294Z,2.47
2022-08-24T05:34:40.734Z,2.50
2022-08-24T05:37:10.490Z,2.80
2022-08-24T05:39:38.825Z,2.45
2022-08-24T05:42:07.146Z,2.88
2022-08-24T05:44:35.281Z,2.53
2022-08-24T05:47:03.428Z,2.47
2022-08-24T05:49:32.473Z,2.42
2022-08-24T05:52:02.259Z,2.67
2022-08-24T05:54:30.697Z,3.03
2022-08-24T05:57:04.527Z,3.10
2022-08-24T05:59:33.284Z,2.53
2022-08-24T06:02:01.458Z,3.00
2022-08-24T06:04:29.803Z,2.88
2022-08-24T06:06:58.231Z,2.58
2022-08-24T06:09:27.666Z,2.90
2022-08-24T06:11:55.755Z,3.22
2022-08-24T06:14:27.021Z,2.97
2022-08-24T06:16:55.570Z,2.88
2022-08-24T06:19:25.093Z,2.80
2022-08-24T06:21:54.969Z,3.20
2022-08-24T06:24:45.506Z,2.67
2022-08-24T06:27:21.729Z,3.13
2022-08-24T06:29:51.120Z,3.25
2022-08-24T06:32:19.496Z,3.60
2022-08-24T06:34:48.371Z,3.05
2022-08-24T06:37:18.407Z,3.28
2022-08-24T06:39:46.812Z,3.08
2022-08-24T06:42:16.634Z,3.35
2022-08-24T06:44:45.138Z,3.40
2022-08-24T06:47:13.235Z,3.53
2022-08-24T06:49:41.340Z,3.15
2022-08-24T06:52:10.224Z,2.83
2022-08-24T06:54:38.577Z,3.58
2022-08-24T06:57:07.194Z,3.60
2022-08-24T06:59:36.912Z,3.40
2022-08-24T07:02:05.468Z,3.70
2022-08-24T07:04:34.605Z,3.30
2022-08-24T07:07:03.130Z,3.17
2022-08-24T07:09:33.383Z,3.38
2022-08-24T07:12:01.586Z,3.13
2022-08-24T07:14:30.163Z,3.17
2022-08-24T07:16:59.679Z,2.53
2022-08-24T07:19:27.934Z,3.33
2022-08-24T07:21:58.191Z,2.70
2022-08-24T07:24:26.279Z,3.28
2022-08-24T07:26:54.522Z,2.60
2022-08-24T07:29:46.951Z,2.67
2022-08-24T07:32:12.407Z,2.95
2022-08-24T07:34:40.453Z,3.03
2022-08-24T07:37:08.939Z,2.85
2022-08-24T07:39:37.044Z,3.15
2022-08-24T07:42:17.183Z,2.63
2022-08-24T07:44:49.053Z,2.55
2022-08-24T07:47:37.539Z,2.35
2022-08-24T07:50:08.567Z,2.50
2022-08-24T07:52:36.671Z,2.22
2022-08-24T07:55:06.349Z,2.30
2022-08-24T07:57:34.881Z,2.58
2022-08-24T08:00:04.916Z,2.30
2022-08-24T08:02:36.138Z,2.50
2022-08-24T08:05:05.033Z,2.40
2022-08-24T08:07:33.550Z,2.35
2022-08-24T08:10:02.770Z,2.42
2022-08-24T08:12:30.838Z,2.33
2022-08-24T08:14:59.226Z,2.80
2022-08-24T08:17:27.455Z,2.60
2022-08-24T08:19:56.967Z,3.22
2022-08-24T08:22:42.345Z,2.03
2022-08-24T08:25:10.944Z,2.60
2022-08-24T08:27:39.110Z,2.60
2022-08-24T08:30:08.542Z,2.67
2022-08-24T08:32:36.573Z,2.60
2022-08-24T08:35:06.829Z,2.38
2022-08-24T08:40:13.615Z,2.50
2022-08-24T08:42:55.557Z,2.45
2022-08-24T08:45:32.631Z,2.40
2022-08-24T08:48:26.119Z,2.38
2022-08-24T08:51:17.160Z,2.53
2022-08-24T08:54:12.618Z,2.00
2022-08-24T08:56:50.410Z,2.05
2022-08-24T08:59:33.274Z,2.38
2022-08-24T09:02:15.482Z,2.22
2022-08-24T09:04:55.848Z,1.90
2022-08-24T09:07:39.790Z,1.98
2022-08-24T09:10:34.564Z,2.10
2022-08-24T09:13:14.671Z,1.90
2022-08-24T09:16:10.703Z,1.80
2022-08-24T09:18:56.762Z,1.88
2022-08-24T09:21:44.158Z,1.88
2022-08-24T09:24:36.965Z,1.60
2022-08-24T09:27:24.275Z,1.80
2022-08-24T09:30:07.523Z,1.83
2022-08-24T09:32:39.845Z,1.73
2022-08-24T09:35:26.386Z,2.05
2022-08-24T09:38:01.802Z,1.70
2022-08-24T09:40:54.245Z,1.70
2022-08-24T09:43:54.123Z,1.60
2022-08-24T09:46:55.597Z,1.80
2022-08-24T09:49:53.885Z,1.80
2022-08-24T09:52:53.039Z,1.70
2022-08-24T09:55:46.980Z,1.60
2022-08-24T09:58:26.674Z,1.80
2022-08-24T10:01:03.481Z,1.52
2022-08-24T10:03:48.269Z,1.40
2022-08-24T10:06:27.959Z,1.90
2022-08-24T10:09:12.544Z,1.40
2022-08-24T10:11:50.406Z,1.65
2022-08-24T10:14:36.638Z,1.80
2022-08-24T10:17:16.098Z,1.70
2022-08-24T10:19:58.009Z,1.70
2022-08-24T10:22:41.535Z,1.63
2022-08-24T10:28:20.750Z,1.42
2022-08-24T10:30:59.367Z,1.70
2022-08-24T10:33:30.040Z,1.70
2022-08-24T10:36:25.210Z,1.58
2022-08-24T10:39:29.197Z,1.40
2022-08-24T10:42:46.723Z,1.75
2022-08-24T10:45:36.305Z,1.38
2022-08-24T10:48:22.861Z,1.75
2022-08-24T10:50:57.778Z,1.38
2022-08-24T10:53:28.663Z,1.38
2022-08-24T10:56:15.557Z,1.35
2022-08-24T10:58:51.196Z,1.70
2022-08-24T11:01:28.370Z,1.73
2022-08-24T11:04:04.559Z,1.50
2022-08-24T11:06:35.470Z,1.60
2022-08-24T11:09:08.741Z,1.33
2022-08-24T11:11:40.570Z,1.35
2022-08-24T11:14:11.531Z,1.58
2022-08-24T11:16:43.206Z,1.70
2022-08-24T11:19:14.286Z,1.38
2022-08-24T11:21:50.526Z,1.60
2022-08-24T11:24:42.474Z,1.65
2022-08-24T11:27:23.391Z,1.60
2022-08-24T11:30:01.228Z,1.52
2022-08-24T11:32:39.546Z,2.03
2022-08-24T11:35:15.769Z,1.67
2022-08-24T11:37:45.296Z,1.25
2022-08-24T11:40:16.531Z,1.60
2022-08-24T11:43:17.354Z,1.50
2022-08-24T11:45:58.198Z,1.50
2022-08-24T11:48:38.130Z,1.60
2022-08-24T11:51:17.635Z,1.52
2022-08-24T11:53:56.259Z,1.80
2022-08-24T11:56:29.359Z,1.83
2022-08-24T11:59:02.888Z,1.60
2022-08-24T12:01:42.837Z,1.38
2022-08-24T12:04:32.739Z,1.52
2022-08-24T12:07:09.154Z,1.38
2022-08-24T12:09:49.717Z,1.30
2022-08-24T12:12:23.247Z,1.48
2022-08-24T12:15:00.353Z,1.27
2022-08-24T12:17:35.498Z,1.25
2022-08-24T12:20:12.811Z,1.38
2022-08-24T12:22:42.385Z,1.42
2022-08-24T12:25:31.920Z,1.35
2022-08-24T12:28:00.744Z,1.00
2022-08-24T12:30:29.360Z,1.10
2022-08-24T12:32:59.937Z,1.45
2022-08-24T12:35:32.941Z,1.33
2022-08-24T12:38:09.190Z,1.38
2022-08-24T12:40:41.909Z,1.58
2022-08-24T12:43:16.066Z,1.38
2022-08-24T12:45:45.078Z,1.58
2022-08-24T12:48:21.982Z,1.10
2022-08-24T12:51:06.334Z,1.38
2022-08-24T12:54:02.991Z,1.38
2022-08-24T12:57:02.545Z,2.17
2022-08-24T12:59:37.850Z,1.42
2022-08-24T13:02:08.180Z,1.60
2022-08-24T13:04:40.979Z,1.85
2022-08-24T13:07:15.247Z,1.40
2022-08-24T13:09:46.815Z,1.60
2022-08-24T13:12:54.741Z,1.83
2022-08-24T13:15:48.606Z,1.70
2022-08-24T13:18:50.598Z,1.55
2022-08-24T13:21:44.862Z,1.42
2022-08-24T13:24:50.346Z,1.70
2022-08-24T13:28:04.714Z,1.45
2022-08-24T13:30:50.962Z,1.85
2022-08-24T13:33:21.830Z,1.60
2022-08-24T13:35:58.647Z,1.55
2022-08-24T13:38:56.957Z,1.35
2022-08-24T13:41:55.199Z,1.70
2022-08-24T13:44:57.091Z,1.45
2022-08-24T13:47:32.951Z,1.70
2022-08-24T13:50:09.384Z,1.65
2022-08-24T13:52:55.032Z,1.73
2022-08-24T13:55:33.894Z,1.90
2022-08-24T13:58:14.297Z,1.83
2022-08-24T14:00:52.655Z,1.50
2022-08-24T14:03:56.021Z,1.55
2022-08-24T14:06:37.029Z,1.60
2022-08-24T14:09:21.362Z,1.48
2022-08-24T14:12:07.452Z,1.50
2022-08-24T14:14:53.860Z,1.50
2022-08-24T14:17:48.742Z,1.67
2022-08-24T14:20:44.776Z,1.27
2022-08-24T14:23:26.246Z,1.40
2022-08-24T14:26:34.492Z,1.40
2022-08-24T14:29:27.721Z,1.35
2022-08-24T14:32:36.010Z,1.88
2022-08-24T14:35:19.484Z,1.45
2022-08-24T14:38:00.266Z,1.20
2022-08-24T14:40:35.132Z,1.40
2022-08-24T14:43:24.216Z,1.48
2022-08-24T14:46:04.778Z,1.30
2022-08-24T14:48:43.513Z,1.48
2022-08-24T14:51:30.161Z,1.02
2022-08-24T14:54:03.751Z,1.10
2022-08-24T14:56:51.530Z,1.25
2022-08-24T14:59:31.590Z,1.33
2022-08-24T15:02:39.180Z,1.58
2022-08-24T15:05:19.167Z,1.65
2022-08-24T15:07:57.538Z,1.33
2022-08-24T15:10:28.977Z,1.50
2022-08-24T15:13:03.918Z,1.92
2022-08-24T15:15:36.574Z,1.70
2022-08-24T15:18:10.256Z,1.95
2022-08-24T15:20:49.442Z,2.05
2022-08-24T15:23:24.509Z,1.90
2022-08-24T15:25:59.378Z,1.92
2022-08-24T15:28:32.007Z,1.83
2022-08-24T15:31:03.305Z,1.65
2022-08-24T15:33:32.413Z,1.70
2022-08-24T15:36:11.027Z,1.52
2022-08-24T15:38:41.993Z,1.77
2022-08-24T15:41:15.778Z,5.28
2022-08-24T15:43:46.520Z,2.08
2022-08-24T15:46:20.365Z,2.83
2022-08-24T15:48:50.650Z,2.30
2022-08-24T15:51:35.576Z,2.00
2022-08-24T15:54:22.774Z,1.98
2022-08-24T15:56:55.772Z,1.70
2022-08-24T15:59:29.563Z,2.10
2022-08-24T16:02:17.596Z,1.80
2022-08-24T16:04:48.654Z,1.80
2022-08-24T16:07:24.504Z,1.92
2022-08-24T16:10:08.560Z,1.80
2022-08-24T16:12:37.518Z,1.85
2022-08-24T16:15:14.667Z,1.75
2022-08-24T16:17:51.069Z,1.70
2022-08-24T16:20:33.094Z,1.70
2022-08-24T16:23:03.329Z,1.60
2022-08-24T16:25:34.793Z,1.80
2022-08-24T16:28:08.136Z,1.80
2022-08-24T16:30:50.705Z,2.28
2022-08-24T16:33:45.012Z,2.20
2022-08-24T16:36:15.084Z,2.17
2022-08-24T16:38:49.009Z,1.77
2022-08-24T16:41:21.243Z,2.38
2022-08-24T16:43:49.798Z,2.75
2022-08-24T16:46:21.928Z,2.20
2022-08-24T16:48:50.194Z,1.92
2022-08-24T16:51:18.262Z,2.03
2022-08-24T16:53:46.318Z,2.10
2022-08-24T16:56:16.695Z,2.38
2022-08-24T16:58:48.218Z,2.20
2022-08-24T17:01:16.750Z,2.20
2022-08-24T17:03:44.900Z,2.38
2022-08-24T17:06:13.343Z,2.45
2022-08-24T17:08:42.114Z,2.65
2022-08-24T17:11:10.582Z,2.25
2022-08-24T17:13:49.267Z,2.55
2022-08-24T17:16:22.259Z,2.50
2022-08-24T17:18:50.406Z,2.33
2022-08-24T17:21:19.306Z,1.92
2022-08-24T17:23:47.656Z,2.10
2022-08-24T17:26:20.746Z,2.10
2022-08-24T17:28:51.826Z,2.00
2022-08-24T17:31:21.476Z,2.50
2022-08-24T17:33:49.657Z,1.80
2022-08-24T17:36:19.670Z,2.25
2022-08-24T17:38:55.229Z,2.00
2022-08-24T17:41:24.646Z,2.22
2022-08-24T17:43:53.220Z,2.17
2022-08-24T17:46:23.221Z,1.90
2022-08-24T17:48:51.486Z,2.05
2022-08-24T17:51:19.959Z,2.25
2022-08-24T17:53:48.055Z,1.75
2022-08-24T17:56:17.524Z,1.80
2022-08-24T17:59:18.202Z,1.75
2022-08-24T18:01:50.203Z,1.80
2022-08-24T18:04:18.955Z,1.80
2022-08-24T18:06:47.268Z,1.73
2022-08-24T18:09:19.968Z,1.75
2022-08-24T18:11:47.972Z,2.47
2022-08-24T18:14:16.667Z,1.77
2022-08-24T18:16:54.057Z,1.70
2022-08-24T18:19:27.224Z,1.90
2022-08-24T18:21:55.354Z,2.08
2022-08-24T18:24:25.240Z,1.80
2022-08-24T18:26:53.713Z,2.03
2022-08-24T18:29:23.034Z,2.10
2022-08-24T18:31:52.104Z,1.85
2022-08-24T18:34:22.107Z,2.00
2022-08-24T18:36:51.849Z,2.28
2022-08-24T18:39:21.331Z,2.22
2022-08-24T18:41:50.569Z,1.92
2022-08-24T18:44:20.845Z,1.80
2022-08-24T18:46:49.356Z,2.17
2022-08-24T18:49:17.974Z,2.42
2022-08-24T18:51:48.132Z,2.42
2022-08-24T18:54:20.332Z,2.13
2022-08-24T18:56:49.799Z,2.10
2022-08-24T18:59:20.449Z,2.50
2022-08-24T19:02:09.051Z,2.10
2022-08-24T19:04:41.847Z,2.20
2022-08-24T19:07:09.953Z,2.60
2022-08-24T19:09:40.513Z,2.50
2022-08-24T19:12:09.627Z,2.83
2022-08-24T19:14:38.434Z,2.05
2022-08-24T19:17:07.363Z,2.17
2022-08-24T19:19:35.787Z,2.63
2022-08-24T19:22:04.767Z,2.55
2022-08-24T19:24:33.478Z,2.65
2022-08-24T19:27:03.257Z,3.00
2022-08-24T19:29:55.582Z,1.98
2022-08-24T19:32:23.633Z,2.85
2022-08-24T19:34:52.357Z,2.78
2022-08-24T19:37:21.515Z,2.80
2022-08-24T19:39:50.952Z,2.80
2022-08-24T19:42:22.023Z,2.70
2022-08-24T19:45:07.685Z,2.67
2022-08-24T19:47:36.132Z,2.72
2022-08-24T19:50:05.633Z,2.47
2022-08-24T19:52:34.455Z,2.75
2022-08-24T19:55:04.274Z,2.22
2022-08-24T19:57:42.431Z,2.60
2022-08-24T20:00:30.552Z,2.70
2022-08-24T20:03:00.799Z,2.50
2022-08-24T20:05:29.572Z,2.53
2022-08-24T20:07:59.009Z,2.70
2022-08-24T20:10:28.106Z,2.50
2022-08-24T20:12:57.663Z,2.65
2022-08-24T20:15:26.825Z,2.55
2022-08-24T20:17:57.950Z,2.53
2022-08-24T20:20:28.280Z,2.80
2022-08-24T20:22:56.746Z,2.83
2022-08-24T20:25:25.286Z,2.58
2022-08-24T20:28:06.889Z,3.05
2022-08-24T20:30:45.233Z,2.47
2022-08-24T20:33:16.219Z,2.58
2022-08-24T20:35:45.535Z,3.15
2022-08-24T20:38:15.490Z,2.83
2022-08-24T20:40:43.880Z,2.83
2022-08-24T20:43:12.658Z,2.40
2022-08-24T20:45:41.758Z,2.92
2022-08-24T20:48:13.110Z,2.35
2022-08-24T20:50:43.635Z,2.88
2022-08-24T20:53:12.446Z,3.00
2022-08-24T20:55:41.576Z,2.70
2022-08-24T20:58:10.914Z,3.08
2022-08-24T21:00:41.029Z,3.03
2022-08-24T21:03:10.710Z,3.40
2022-08-24T21:05:40.207Z,2.58
2022-08-24T21:08:08.325Z,2.53
2022-08-24T21:10:36.460Z,2.78
2022-08-24T21:13:06.342Z,2.50
2022-08-24T21:15:35.381Z,2.47
2022-08-24T21:18:03.407Z,2.88
2022-08-24T21:20:33.939Z,2.90
2022-08-24T21:23:02.012Z,3.25
2022-08-24T21:25:30.532Z,2.33
2022-08-24T21:28:00.406Z,2.40
2022-08-24T21:30:28.838Z,2.60
2022-08-24T21:33:15.027Z,2.70
2022-08-24T21:35:44.847Z,2.38
2022-08-24T21:38:13.825Z,2.88
2022-08-24T21:40:44.853Z,2.70
2022-08-24T21:43:14.966Z,2.58
2022-08-24T21:45:46.458Z,2.53
2022-08-24T21:48:14.626Z,2.58
2022-08-24T21:50:44.705Z,2.58
2022-08-24T21:53:13.255Z,2.58
2022-08-24T21:55:42.476Z,2.67
2022-08-24T21:58:11.118Z,2.65
2022-08-24T22:00:40.235Z,2.75
2022-08-24T22:03:09.029Z,3.13
2022-08-24T22:05:37.414Z,2.63
2022-08-24T22:08:07.028Z,2.70
2022-08-24T22:10:35.113Z,2.60
2022-08-24T22:13:04.829Z,2.55
2022-08-24T22:15:33.838Z,2.90
2022-08-24T22:18:02.328Z,2.78
2022-08-24T22:20:30.438Z,2.78
2022-08-24T22:22:59.330Z,2.67
2022-08-24T22:25:30.339Z,3.25
2022-08-24T22:27:58.444Z,2.63
2022-08-24T22:30:26.577Z,3.13
2022-08-24T22:32:54.745Z,2.40
2022-08-24T22:35:22.881Z,2.88
2022-08-24T22:37:50.991Z,2.65
2022-08-24T22:40:20.180Z,2.85
2022-08-24T22:42:49.896Z,2.60
2022-08-24T22:45:18.030Z,3.10
2022-08-24T22:47:46.335Z,3.30
2022-08-24T22:50:14.445Z,2.42
2022-08-24T22:52:42.598Z,3.20
2022-08-24T22:55:11.446Z,2.60
2022-08-24T22:57:39.621Z,3.30
2022-08-24T23:00:11.132Z,3.00
2022-08-24T23:02:43.160Z,2.67
2022-08-24T23:05:11.774Z,3.58
2022-08-24T23:07:39.842Z,3.67
2022-08-24T23:10:09.122Z,3.03
2022-08-24T23:12:37.255Z,3.22
2022-08-24T23:15:05.837Z,2.72
2022-08-24T23:17:35.432Z,3.45
2022-08-24T23:20:07.976Z,3.17
2022-08-24T23:22:40.746Z,3.25
2022-08-24T23:25:11.838Z,3.72
2022-08-24T23:27:40.648Z,3.67
2022-08-24T23:30:12.244Z,3.22
2022-08-24T23:32:43.755Z,3.65
2022-08-24T23:35:11.976Z,3.25
2022-08-24T23:37:40.204Z,3.72
2022-08-24T23:40:09.468Z,3.83
2022-08-24T23:42:37.602Z,3.80
2022-08-24T23:45:11.191Z,3.92
2022-08-24T23:47:42.186Z,3.92
2022-08-24T23:50:11.574Z,4.00
2022-08-24T23:52:40.441Z,4.30
2022-08-24T23:55:20.026Z,3.90
2022-08-24T23:57:50.281Z,4.03
